Time;durP1;ratioP1;P1;durP2;ratioP2;P2;SDS_P1;SDS_P2;PMS_P1;PMS_P2;Temp;Humidity;BMP_temperature;BMP_pressure;BME280_temperature;BME280_humidity;BME280_pressure;Samples;Min_cycle;Max_cycle;Signal;HPM_P1;HPM_P2
2021/09/19 00:02:11;;;;;;;11.27;9.90;;;19.00;99.90;;;;;;5044299;28;20203;-67
2021/09/19 00:04:37;;;;;;;11.70;9.00;;;19.00;99.90;;;;;;5042977;28;20291;-68
2021/09/19 00:07:03;;;;;;;10.03;9.10;;;18.90;99.90;;;;;;5008016;28;20224;-68
2021/09/19 00:09:28;;;;;;;10.30;8.70;;;18.80;99.90;;;;;;5023703;28;20689;-68
2021/09/19 00:11:54;;;;;;;8.87;8.07;;;18.80;99.90;;;;;;5043325;28;20257;-69
2021/09/19 00:14:20;;;;;;;9.90;8.90;;;18.70;99.90;;;;;;5043410;28;20192;-68
2021/09/19 00:16:51;;;;;;;9.57;8.40;;;18.70;99.90;;;;;;5024228;28;20215;-68
2021/09/19 00:19:20;;;;;;;9.37;8.47;;;18.80;99.90;;;;;;5043014;28;20195;-69
2021/09/19 00:21:46;;;;;;;10.10;9.10;;;18.70;99.90;;;;;;5025490;28;20438;-69
2021/09/19 00:24:12;;;;;;;9.70;8.70;;;18.80;99.90;;;;;;5045971;28;20941;-68
2021/09/19 00:26:38;;;;;;;9.70;8.80;;;18.80;99.90;;;;;;5027267;28;20219;-68
2021/09/19 00:29:04;;;;;;;9.50;8.60;;;18.70;99.90;;;;;;5041687;28;20470;-69
2021/09/19 00:31:31;;;;;;;9.90;8.90;;;18.70;99.90;;;;;;5041604;28;20196;-69
2021/09/19 00:33:56;;;;;;;10.50;9.37;;;18.70;99.90;;;;;;5025373;28;20419;-69
2021/09/19 00:36:22;;;;;;;9.63;8.73;;;18.70;99.90;;;;;;5044573;28;20454;-69
2021/09/19 00:38:47;;;;;;;9.40;8.43;;;18.70;99.90;;;;;;5041378;28;20207;-69
2021/09/19 00:41:16;;;;;;;10.50;9.50;;;18.70;99.90;;;;;;5039926;28;20199;-68
2021/09/19 00:43:42;;;;;;;11.10;9.17;;;18.70;99.90;;;;;;5009117;28;20249;-69
2021/09/19 00:46:08;;;;;;;9.97;9.03;;;18.70;99.90;;;;;;5025537;28;20920;-69
2021/09/19 00:48:33;;;;;;;10.97;9.53;;;18.80;99.90;;;;;;5046519;28;20333;-69
2021/09/19 00:51:01;;;;;;;10.77;9.70;;;18.80;99.90;;;;;;5044595;28;20268;-69
2021/09/19 00:53:27;;;;;;;10.90;9.80;;;18.80;99.90;;;;;;5043903;28;20603;-70
2021/09/19 00:55:57;;;;;;;10.83;8.60;;;18.70;99.90;;;;;;5041922;28;20467;-69
2021/09/19 00:58:23;;;;;;;8.93;8.00;;;18.50;99.90;;;;;;5043233;28;20600;-69
2021/09/19 01:00:52;;;;;;;9.70;8.37;;;18.50;99.90;;;;;;5043830;28;20509;-69
2021/09/19 01:03:18;;;;;;;10.07;9.07;;;18.50;99.90;;;;;;5043891;28;20191;-68
2021/09/19 01:05:45;;;;;;;9.30;8.37;;;18.50;99.90;;;;;;5040717;28;20430;-68
2021/09/19 01:08:15;;;;;;;10.23;9.30;;;18.40;99.90;;;;;;5041366;28;20294;-68
2021/09/19 01:10:41;;;;;;;10.60;9.60;;;18.40;99.90;;;;;;5043286;28;20449;-65
2021/09/19 01:13:07;;;;;;;9.77;8.83;;;18.50;99.90;;;;;;5043323;28;20926;-66
2021/09/19 01:15:34;;;;;;;12.40;9.27;;;18.40;99.90;;;;;;5042854;28;20805;-66
2021/09/19 01:18:00;;;;;;;10.43;9.43;;;18.30;99.90;;;;;;5043370;28;20466;-66
2021/09/19 01:20:26;;;;;;;10.40;9.40;;;18.40;99.90;;;;;;5040671;28;20434;-65
2021/09/19 01:23:01;;;;;;;11.33;9.20;;;18.20;99.90;;;;;;5042265;28;20435;-65
2021/09/19 01:25:27;;;;;;;10.10;9.10;;;18.00;99.90;;;;;;5026968;28;20441;-65
2021/09/19 01:27:53;;;;;;;10.67;9.37;;;18.00;99.90;;;;;;5025831;28;20477;-66
2021/09/19 01:30:19;;;;;;;9.53;8.63;;;18.00;99.90;;;;;;5044016;28;20466;-66
2021/09/19 01:32:44;;;;;;;9.83;8.83;;;18.10;99.90;;;;;;5043268;28;20547;-66
2021/09/19 01:35:11;;;;;;;10.37;9.37;;;18.20;99.90;;;;;;5042363;28;20319;-65
2021/09/19 01:37:37;;;;;;;10.43;8.67;;;18.00;99.90;;;;;;5043702;28;20203;-66
2021/09/19 01:40:04;;;;;;;10.77;9.67;;;18.00;99.90;;;;;;5023725;28;20422;-67
2021/09/19 01:42:30;;;;;;;9.20;7.80;;;18.00;99.90;;;;;;5027856;28;20435;-67
2021/09/19 01:44:56;;;;;;;9.83;8.83;;;18.00;99.90;;;;;;5044970;28;20415;-67
2021/09/19 01:47:22;;;;;;;9.23;8.40;;;17.90;99.90;;;;;;5042105;28;20291;-67
2021/09/19 01:49:49;;;;;;;9.30;8.40;;;17.90;99.90;;;;;;5028834;28;20548;-67
2021/09/19 01:52:17;;;;;;;8.77;7.97;;;17.90;99.90;;;;;;5044266;28;20176;-67
2021/09/19 01:54:42;;;;;;;11.83;8.13;;;17.70;99.90;;;;;;5041423;28;20433;-66
2021/09/19 01:57:08;;;;;;;9.33;8.33;;;17.70;99.90;;;;;;5042949;28;20884;-65
2021/09/19 01:59:34;;;;;;;10.43;8.93;;;17.60;99.90;;;;;;5040643;28;20317;-66
2021/09/19 02:02:00;;;;;;;7.83;7.03;;;17.60;99.90;;;;;;5043881;28;20192;-65
2021/09/19 02:04:26;;;;;;;8.57;7.77;;;17.60;99.90;;;;;;5043922;28;20429;-69
2021/09/19 02:06:55;;;;;;;8.77;7.97;;;17.50;99.90;;;;;;5041917;28;20334;-67
2021/09/19 02:09:21;;;;;;;9.00;8.20;;;17.50;99.90;;;;;;5042845;28;20295;-67
2021/09/19 02:11:47;;;;;;;8.93;8.10;;;17.40;99.90;;;;;;5044952;28;20505;-67
2021/09/19 02:14:12;;;;;;;8.63;7.73;;;17.30;99.90;;;;;;5044222;28;20191;-67
2021/09/19 02:16:41;;;;;;;8.40;7.60;;;17.20;99.90;;;;;;5040747;28;20471;-67
2021/09/19 02:19:06;;;;;;;8.10;7.30;;;17.20;99.90;;;;;;5028213;28;20184;-67
2021/09/19 02:21:32;;;;;;;8.60;7.70;;;17.20;99.90;;;;;;5049384;28;20429;-67
2021/09/19 02:23:58;;;;;;;7.37;6.67;;;17.20;99.90;;;;;;5046206;28;20214;-67
2021/09/19 02:26:23;;;;;;;8.20;7.30;;;17.30;99.90;;;;;;5028294;28;20238;-66
2021/09/19 02:28:49;;;;;;;8.80;7.17;;;17.40;99.90;;;;;;5046848;28;20268;-67
2021/09/19 02:31:14;;;;;;;6.57;5.97;;;17.40;99.90;;;;;;5048714;28;20248;-67
2021/09/19 02:33:40;;;;;;;9.70;7.70;;;17.40;99.90;;;;;;5046271;28;20184;-67
2021/09/19 02:36:06;;;;;;;8.20;7.37;;;17.50;99.90;;;;;;5048050;28;21187;-67
2021/09/19 02:38:32;;;;;;;7.63;6.90;;;17.50;99.90;;;;;;5031110;28;20238;-68
2021/09/19 02:41:01;;;;;;;7.80;7.00;;;17.40;99.90;;;;;;5025750;28;20184;-66
2021/09/19 02:43:29;;;;;;;6.70;6.10;;;17.20;99.90;;;;;;5047052;28;20442;-65
2021/09/19 02:45:55;;;;;;;8.00;7.20;;;17.20;99.90;;;;;;5048332;28;20817;-66
2021/09/19 02:48:20;;;;;;;10.93;7.10;;;17.30;99.90;;;;;;5045191;28;20439;-67
2021/09/19 02:50:46;;;;;;;8.73;7.90;;;17.20;99.90;;;;;;5043479;28;20442;-67
2021/09/19 02:53:12;;;;;;;7.90;7.20;;;17.20;99.90;;;;;;5050345;28;20308;-67
2021/09/19 02:55:38;;;;;;;6.77;6.10;;;17.10;99.90;;;;;;5044436;28;20528;-67
2021/09/19 02:58:07;;;;;;;7.27;6.53;;;17.10;99.90;;;;;;5047756;28;20200;-67
2021/09/19 03:00:32;;;;;;;6.97;6.00;;;17.20;99.90;;;;;;5048328;28;20542;-66
2021/09/19 03:02:58;;;;;;;7.50;6.13;;;17.30;99.90;;;;;;5047774;28;20430;-67
2021/09/19 03:05:24;;;;;;;8.93;5.80;;;17.20;99.90;;;;;;5043879;28;20247;-67
2021/09/19 03:07:54;;;;;;;6.30;5.70;;;17.20;99.90;;;;;;5043991;28;20242;-67
2021/09/19 03:10:20;;;;;;;6.60;5.80;;;17.20;99.90;;;;;;5027245;28;20207;-66
2021/09/19 03:12:48;;;;;;;6.97;6.20;;;17.20;99.90;;;;;;5047137;28;20755;-66
2021/09/19 03:15:14;;;;;;;7.37;6.40;;;16.80;99.90;;;;;;5045529;28;20550;-66
2021/09/19 03:17:40;;;;;;;7.13;6.10;;;16.60;99.90;;;;;;5043944;28;20484;-67
2021/09/19 03:20:09;;;;;;;7.43;5.67;;;16.70;99.90;;;;;;5047766;28;20207;-66
2021/09/19 03:22:35;;;;;;;6.67;5.97;;;16.50;99.90;;;;;;5043395;28;20190;-66
2021/09/19 03:25:04;;;;;;;7.70;5.73;;;16.60;99.90;;;;;;5042314;28;20411;-66
2021/09/19 03:27:30;;;;;;;7.80;5.90;;;16.50;99.90;;;;;;5042805;28;20498;-66
2021/09/19 03:29:57;;;;;;;7.33;5.97;;;16.40;99.90;;;;;;5048126;28;20612;-66
2021/09/19 03:32:23;;;;;;;6.30;5.70;;;16.30;99.90;;;;;;5044682;28;20812;-67
2021/09/19 03:34:48;;;;;;;5.73;5.23;;;16.40;99.90;;;;;;5043479;28;20445;-66
2021/09/19 03:37:14;;;;;;;6.27;5.67;;;16.40;99.90;;;;;;5044871;28;20219;-66
2021/09/19 03:39:40;;;;;;;6.90;5.73;;;16.40;99.90;;;;;;5044805;28;20651;-66
2021/09/19 03:42:05;;;;;;;6.57;5.97;;;16.50;99.90;;;;;;5027653;28;20230;-66
2021/09/19 03:44:31;;;;;;;6.40;5.50;;;16.50;99.90;;;;;;5045912;28;20196;-65
2021/09/19 03:46:57;;;;;;;6.20;5.60;;;16.40;99.90;;;;;;5046153;28;20341;-66
2021/09/19 03:49:22;;;;;;;5.90;5.30;;;16.40;99.90;;;;;;5044824;28;20288;-66
2021/09/19 03:51:52;;;;;;;5.90;5.30;;;16.50;99.90;;;;;;5045963;28;20211;-66
2021/09/19 03:54:21;;;;;;;6.50;5.60;;;16.50;99.90;;;;;;5026679;28;20192;-65
2021/09/19 03:56:46;;;;;;;5.67;5.17;;;16.40;99.90;;;;;;5045907;28;20446;-65
2021/09/19 03:59:15;;;;;;;5.83;4.50;;;16.50;99.90;;;;;;5045939;28;20434;-66
2021/09/19 04:01:40;;;;;;;5.57;5.07;;;16.50;99.90;;;;;;5007980;28;20196;-67
2021/09/19 04:04:06;;;;;;;5.47;4.57;;;16.50;99.90;;;;;;5041248;28;20445;-66
2021/09/19 04:06:32;;;;;;;5.03;4.53;;;16.50;99.90;;;;;;5027008;28;20219;-65
2021/09/19 04:08:57;;;;;;;7.07;4.87;;;16.60;99.90;;;;;;5043109;28;20219;-65
2021/09/19 04:11:23;;;;;;;5.27;4.80;;;16.40;99.90;;;;;;5046228;28;20194;-66
2021/09/19 04:13:48;;;;;;;6.20;5.40;;;16.40;99.90;;;;;;5045665;28;20196;-66
2021/09/19 04:16:14;;;;;;;5.20;4.73;;;16.40;99.90;;;;;;5045637;28;20669;-65
2021/09/19 04:18:40;;;;;;;4.57;4.17;;;16.40;99.90;;;;;;5047674;28;20195;-65
2021/09/19 04:21:05;;;;;;;4.47;4.10;;;16.30;99.90;;;;;;5043477;28;20203;-66
2021/09/19 04:23:31;;;;;;;4.73;4.33;;;16.20;99.90;;;;;;5044992;28;20605;-66
2021/09/19 04:25:56;;;;;;;4.37;3.80;;;16.30;99.90;;;;;;5043620;28;20583;-65
2021/09/19 04:28:22;;;;;;;4.83;4.33;;;16.30;99.90;;;;;;5048024;28;20242;-66
2021/09/19 04:30:48;;;;;;;4.50;3.93;;;16.20;99.90;;;;;;5027695;28;20568;-66
2021/09/19 04:33:13;;;;;;;4.17;3.77;;;16.40;99.90;;;;;;5043995;28;20183;-66
2021/09/19 04:35:39;;;;;;;4.70;4.10;;;16.20;99.90;;;;;;5045743;28;20191;-67
2021/09/19 04:38:05;;;;;;;4.87;4.30;;;16.10;99.90;;;;;;5046499;28;20333;-67
2021/09/19 04:40:30;;;;;;;4.70;4.30;;;16.10;99.90;;;;;;5024237;28;20195;-67
2021/09/19 04:42:59;;;;;;;5.10;4.60;;;16.10;99.90;;;;;;5041752;28;20196;-67
2021/09/19 04:45:25;;;;;;;4.27;3.87;;;16.20;99.90;;;;;;5048057;28;20215;-67
2021/09/19 04:47:50;;;;;;;5.07;3.93;;;16.30;99.90;;;;;;5010275;28;20972;-66
2021/09/19 04:50:16;;;;;;;4.87;4.20;;;16.20;99.90;;;;;;5045769;28;20227;-67
2021/09/19 04:52:42;;;;;;;5.03;4.17;;;16.10;99.90;;;;;;5023281;28;20202;-67
2021/09/19 04:55:08;;;;;;;4.87;4.47;;;16.10;99.90;;;;;;5040957;28;20195;-66
2021/09/19 04:57:37;;;;;;;4.10;3.70;;;16.20;99.90;;;;;;5046561;28;20200;-66
2021/09/19 05:00:10;;;;;;;4.97;4.47;;;16.00;99.90;;;;;;5042447;28;20442;-66
2021/09/19 05:02:35;;;;;;;5.17;4.10;;;16.00;99.90;;;;;;5042288;28;20521;-65
2021/09/19 05:05:04;;;;;;;4.80;4.40;;;16.10;99.90;;;;;;5042983;28;20560;-66
2021/09/19 05:07:29;;;;;;;4.80;4.13;;;15.90;99.90;;;;;;5045613;28;20215;-67
2021/09/19 05:09:55;;;;;;;4.40;3.43;;;15.90;99.90;;;;;;5046407;28;20476;-66
2021/09/19 05:12:21;;;;;;;4.83;4.40;;;16.00;99.90;;;;;;5046021;28;20184;-67
2021/09/19 05:14:49;;;;;;;4.97;4.47;;;16.10;99.90;;;;;;5007585;28;20658;-67
2021/09/19 05:17:15;;;;;;;4.30;3.90;;;16.10;99.90;;;;;;5025610;28;20583;-66
2021/09/19 05:19:41;;;;;;;4.60;4.17;;;16.20;99.90;;;;;;5025215;28;20509;-68
2021/09/19 05:22:10;;;;;;;6.77;4.27;;;16.10;99.90;;;;;;5045633;28;20580;-66
2021/09/19 05:24:36;;;;;;;5.73;4.20;;;15.90;99.90;;;;;;5043871;28;20844;-66
2021/09/19 05:27:05;;;;;;;4.53;4.13;;;16.00;99.90;;;;;;5044315;28;20467;-66
2021/09/19 05:29:30;;;;;;;4.37;3.97;;;16.00;99.90;;;;;;5044033;28;20215;-66
2021/09/19 05:31:56;;;;;;;4.10;3.70;;;16.00;99.90;;;;;;5011588;28;20872;-67
2021/09/19 05:34:22;;;;;;;4.00;3.60;;;16.00;99.90;;;;;;5040511;28;20204;-66
2021/09/19 05:36:47;;;;;;;4.43;4.00;;;16.00;99.90;;;;;;5023452;28;20203;-67
2021/09/19 05:39:13;;;;;;;4.50;4.10;;;16.00;99.90;;;;;;5045064;28;20180;-66
2021/09/19 05:41:41;;;;;;;4.77;4.27;;;15.80;99.90;;;;;;5025735;28;20325;-66
2021/09/19 05:44:10;;;;;;;4.47;4.07;;;15.80;99.90;;;;;;5043751;28;20256;-66
2021/09/19 05:46:35;;;;;;;4.77;3.90;;;15.70;99.90;;;;;;5025456;28;20676;-67
2021/09/19 05:49:01;;;;;;;6.63;4.40;;;15.60;99.90;;;;;;5043488;28;20568;-67
2021/09/19 05:51:27;;;;;;;4.40;4.00;;;15.60;99.90;;;;;;5032125;28;20557;-66
2021/09/19 05:53:53;;;;;;;4.63;4.13;;;15.60;99.90;;;;;;5028237;28;20183;-66
2021/09/19 05:56:19;;;;;;;4.33;3.77;;;15.70;99.90;;;;;;5029698;28;20794;-66
2021/09/19 05:58:45;;;;;;;3.90;3.60;;;15.80;99.90;;;;;;5049140;28;20298;-67
2021/09/19 06:01:10;;;;;;;4.20;3.83;;;15.90;99.90;;;;;;5024927;28;20221;-67
2021/09/19 06:03:38;;;;;;;4.60;3.97;;;15.90;99.90;;;;;;5045709;28;20505;-66
2021/09/19 06:06:03;;;;;;;4.00;3.43;;;15.70;99.90;;;;;;5049763;28;20195;-66
2021/09/19 06:08:32;;;;;;;5.10;3.40;;;15.80;99.90;;;;;;5049443;28;20587;-66
2021/09/19 06:10:58;;;;;;;4.60;4.20;;;15.80;99.90;;;;;;5027085;28;20279;-66
2021/09/19 06:13:23;;;;;;;4.40;4.00;;;15.90;99.90;;;;;;5048641;28;20928;-66
2021/09/19 06:15:49;;;;;;;4.40;4.00;;;16.00;99.90;;;;;;5046340;28;20194;-66
2021/09/19 06:18:15;;;;;;;3.80;3.50;;;16.00;99.90;;;;;;5044926;28;20617;-66
2021/09/19 06:20:41;;;;;;;5.53;4.37;;;15.80;99.90;;;;;;5046243;28;20200;-67
2021/09/19 06:23:07;;;;;;;4.80;3.70;;;15.80;99.90;;;;;;5045033;28;20377;-67
2021/09/19 06:25:33;;;;;;;5.13;4.37;;;15.90;99.90;;;;;;5049979;28;20667;-66
2021/09/19 06:27:58;;;;;;;4.47;3.90;;;16.00;99.90;;;;;;5046155;28;20470;-67
2021/09/19 06:30:26;;;;;;;5.13;4.00;;;15.90;99.90;;;;;;5045735;28;20314;-67
2021/09/19 06:32:54;;;;;;;5.50;4.53;;;15.90;99.90;;;;;;5028834;28;20198;-65
2021/09/19 06:35:23;;;;;;;4.30;3.90;;;16.00;99.90;;;;;;5047613;28;20847;-67
2021/09/19 06:37:48;;;;;;;5.30;4.43;;;16.00;99.90;;;;;;5046930;28;20956;-67
2021/09/19 06:40:20;;;;;;;4.83;4.10;;;16.00;99.90;;;;;;5051624;28;20437;-67
2021/09/19 06:42:45;;;;;;;5.07;4.00;;;16.00;99.90;;;;;;5028699;28;20284;-66
2021/09/19 06:45:11;;;;;;;4.97;4.40;;;16.10;99.90;;;;;;5028282;28;20525;-67
2021/09/19 06:47:41;;;;;;;4.67;4.17;;;16.10;99.90;;;;;;5048289;28;20204;-67
2021/09/19 06:50:08;;;;;;;6.47;3.50;;;16.10;99.90;;;;;;5047527;28;20255;-68
2021/09/19 06:52:37;;;;;;;4.53;4.07;;;16.10;99.90;;;;;;5046981;28;20425;-66
2021/09/19 06:55:03;;;;;;;4.67;4.23;;;16.10;99.90;;;;;;5029364;28;20959;-65
2021/09/19 06:57:29;;;;;;;5.67;4.30;;;16.10;99.90;;;;;;5028718;28;20454;-65
2021/09/19 06:59:55;;;;;;;7.43;5.10;;;16.20;99.90;;;;;;5043255;28;20493;-67
2021/09/19 07:02:23;;;;;;;4.10;3.80;;;16.10;99.90;;;;;;5046472;28;20192;-68
2021/09/19 07:04:49;;;;;;;4.60;4.20;;;16.20;99.90;;;;;;5045380;28;20241;-66
2021/09/19 07:07:14;;;;;;;4.70;4.07;;;16.30;99.90;;;;;;5045580;28;20467;-66
2021/09/19 07:09:41;;;;;;;5.33;4.83;;;16.40;99.90;;;;;;5046779;28;20192;-67
2021/09/19 07:12:07;;;;;;;5.93;4.03;;;16.30;99.90;;;;;;5029558;28;20179;-67
2021/09/19 07:14:35;;;;;;;4.13;3.73;;;16.40;99.90;;;;;;5046071;28;20491;-66
2021/09/19 07:17:00;;;;;;;5.63;4.80;;;16.50;99.90;;;;;;5045354;28;20254;-66
2021/09/19 07:19:26;;;;;;;5.07;4.33;;;16.40;99.90;;;;;;5044655;28;20419;-66
2021/09/19 07:21:52;;;;;;;4.10;3.80;;;16.40;99.90;;;;;;5029917;28;20561;-66
2021/09/19 07:24:17;;;;;;;4.90;4.50;;;16.50;99.90;;;;;;5046490;28;20191;-66
2021/09/19 07:26:43;;;;;;;4.57;4.17;;;16.50;99.90;;;;;;5043829;28;20215;-67
2021/09/19 07:29:11;;;;;;;4.63;4.23;;;16.50;99.90;;;;;;5046467;28;20244;-65
2021/09/19 07:31:38;;;;;;;4.33;3.93;;;16.60;99.90;;;;;;5047698;28;20198;-66
2021/09/19 07:34:04;;;;;;;4.33;3.93;;;16.60;99.90;;;;;;5042600;28;20453;-67
2021/09/19 07:36:35;;;;;;;4.67;4.23;;;16.50;99.90;;;;;;5045999;28;20430;-65
2021/09/19 07:39:04;;;;;;;4.17;3.80;;;16.60;99.90;;;;;;5045570;28;20589;-65
2021/09/19 07:41:31;;;;;;;6.10;4.60;;;16.70;99.90;;;;;;5044283;28;20429;-65
2021/09/19 07:44:00;;;;;;;5.87;5.37;;;16.70;99.90;;;;;;5029906;28;20424;-65
2021/09/19 07:46:29;;;;;;;4.40;4.00;;;16.60;99.90;;;;;;5044188;28;20454;-66
2021/09/19 07:48:54;;;;;;;6.17;5.10;;;16.70;99.90;;;;;;5044847;28;20539;-66
2021/09/19 07:51:23;;;;;;;3.83;3.53;;;16.90;99.90;;;;;;5046025;28;20564;-65
2021/09/19 07:53:52;;;;;;;6.53;5.60;;;16.90;99.90;;;;;;5047055;28;20241;-64
2021/09/19 07:56:20;;;;;;;5.43;4.93;;;17.00;99.90;;;;;;5047450;28;20437;-66
2021/09/19 07:58:46;;;;;;;6.40;5.80;;;17.00;99.90;;;;;;5028961;28;20810;-66
2021/09/19 08:01:11;;;;;;;3.83;3.50;;;17.00;99.90;;;;;;5045632;28;20426;-65
2021/09/19 08:03:37;;;;;;;4.80;4.37;;;17.10;99.90;;;;;;5032653;28;20184;-65
2021/09/19 08:06:03;;;;;;;4.77;4.37;;;17.30;99.90;;;;;;5045502;28;20192;-68
2021/09/19 08:08:28;;;;;;;7.03;4.53;;;17.20;99.90;;;;;;5043588;28;20281;-68
2021/09/19 08:10:54;;;;;;;5.50;4.90;;;17.30;99.90;;;;;;5042824;28;20231;-69
2021/09/19 08:13:20;;;;;;;7.17;5.73;;;17.40;99.90;;;;;;5045473;28;20232;-68
2021/09/19 08:15:46;;;;;;;5.90;4.97;;;17.50;99.90;;;;;;5029582;28;20512;-69
2021/09/19 08:18:12;;;;;;;9.90;8.80;;;17.50;99.90;;;;;;5026320;28;20294;-69
2021/09/19 08:20:38;;;;;;;12.37;10.87;;;17.50;99.90;;;;;;5044526;28;20200;-68
2021/09/19 08:23:03;;;;;;;4.50;4.10;;;17.60;99.90;;;;;;5042275;28;20479;-69
2021/09/19 08:25:29;;;;;;;5.20;4.60;;;17.70;99.90;;;;;;5044271;28;20563;-69
2021/09/19 08:27:55;;;;;;;5.60;5.00;;;17.70;99.90;;;;;;5045322;28;20286;-69
2021/09/19 08:30:20;;;;;;;4.47;4.07;;;17.70;99.90;;;;;;5023494;28;20211;-69
2021/09/19 08:32:46;;;;;;;4.90;4.10;;;17.70;99.90;;;;;;5046432;28;20191;-69
2021/09/19 08:35:13;;;;;;;5.77;4.30;;;17.80;99.90;;;;;;5044866;28;20192;-69
2021/09/19 08:37:40;;;;;;;5.50;4.10;;;17.80;99.90;;;;;;5042508;28;20819;-67
2021/09/19 08:40:08;;;;;;;6.20;5.20;;;17.90;99.90;;;;;;5046302;28;20561;-68
2021/09/19 08:42:36;;;;;;;9.30;8.40;;;17.90;99.90;;;;;;5044537;28;20435;-67
2021/09/19 08:45:03;;;;;;;9.30;8.40;;;18.00;99.90;;;;;;5044408;28;20493;-68
2021/09/19 08:47:35;;;;;;;8.57;6.47;;;18.00;99.90;;;;;;5045238;28;20457;-68
2021/09/19 08:50:04;;;;;;;5.23;4.40;;;18.00;99.90;;;;;;5043480;28;20477;-68
2021/09/19 08:52:30;;;;;;;5.60;4.87;;;18.10;99.90;;;;;;5044577;28;20433;-68
2021/09/19 08:54:56;;;;;;;4.70;4.30;;;18.20;99.90;;;;;;5041552;28;20430;-67
2021/09/19 08:57:21;;;;;;;5.67;4.40;;;18.20;99.90;;;;;;5044269;28;20225;-69
2021/09/19 08:59:49;;;;;;;7.50;4.20;;;18.20;99.90;;;;;;5042967;28;20191;-68
2021/09/19 09:02:15;;;;;;;4.20;3.80;;;18.20;99.90;;;;;;5042659;28;20709;-69
2021/09/19 09:04:43;;;;;;;4.73;4.27;;;18.30;99.90;;;;;;5044455;28;20536;-69
2021/09/19 09:07:09;;;;;;;5.00;4.53;;;18.30;99.90;;;;;;5045350;28;20457;-68
2021/09/19 09:09:35;;;;;;;6.30;5.10;;;18.30;99.90;;;;;;5043573;28;20523;-68
2021/09/19 09:12:12;;;;;;;5.13;4.63;;;18.50;99.90;;;;;;5042207;28;20802;-68
2021/09/19 09:14:39;;;;;;;4.40;4.00;;;18.60;99.90;;;;;;5042402;28;20705;-68
2021/09/19 09:17:16;;;;;;;7.70;6.67;;;18.60;99.90;;;;;;5043582;28;20493;-68
2021/09/19 09:19:43;;;;;;;6.20;5.60;;;18.60;99.90;;;;;;5045285;28;20426;-68
2021/09/19 09:22:09;;;;;;;8.13;6.60;;;18.70;99.90;;;;;;5044867;28;20827;-67
2021/09/19 09:24:40;;;;;;;5.97;4.37;;;18.80;99.90;;;;;;5041791;28;20436;-68
2021/09/19 09:27:40;;;;;;;6.03;4.33;;;18.80;99.90;;;;;;5047150;28;20263;-68
2021/09/19 09:30:10;;;;;;;6.13;5.63;;;18.80;99.90;;;;;;5013116;28;20505;-68
2021/09/19 09:32:49;;;;;;;7.30;6.60;;;18.70;99.90;;;;;;5048397;28;20453;-68
2021/09/19 09:35:15;;;;;;;7.47;6.70;;;18.80;99.90;;;;;;5048820;28;20434;-68
2021/09/19 09:37:44;;;;;;;6.07;5.17;;;18.80;99.90;;;;;;5047795;28;20452;-68
2021/09/19 09:40:30;;;;;;;5.47;4.67;;;18.90;99.90;;;;;;5050347;28;20186;-68
2021/09/19 09:43:04;;;;;;;4.60;4.10;;;19.10;99.90;;;;;;5046934;28;20429;-68
2021/09/19 09:45:35;;;;;;;4.40;4.00;;;19.10;99.90;;;;;;5047794;28;20428;-68
2021/09/19 09:48:01;;;;;;;4.73;4.23;;;19.30;99.90;;;;;;5047908;28;20447;-68
2021/09/19 09:50:29;;;;;;;4.90;4.10;;;19.40;99.90;;;;;;5048708;28;20553;-69
2021/09/19 09:53:11;;;;;;;7.63;4.40;;;19.40;99.90;;;;;;5045340;28;20434;-69
2021/09/19 09:55:44;;;;;;;4.37;4.00;;;19.50;99.90;;;;;;5049396;28;20854;-68
2021/09/19 09:58:18;;;;;;;5.03;4.30;;;19.50;99.90;;;;;;5047548;28;20445;-69
2021/09/19 10:00:43;;;;;;;7.97;3.93;;;19.60;99.90;;;;;;5029286;28;20457;-69
2021/09/19 10:03:09;;;;;;;4.57;4.10;;;19.50;99.90;;;;;;5049995;28;20933;-68
2021/09/19 10:05:35;;;;;;;4.40;4.00;;;19.60;99.90;;;;;;5048222;28;20888;-68
2021/09/19 10:08:02;;;;;;;4.10;3.80;;;19.50;99.90;;;;;;5046551;28;20211;-68
2021/09/19 10:10:29;;;;;;;4.23;3.83;;;19.70;99.90;;;;;;5048356;28;20465;-68
2021/09/19 10:12:56;;;;;;;4.90;4.50;;;19.80;99.90;;;;;;5046931;28;20464;-69
2021/09/19 10:15:24;;;;;;;7.30;4.73;;;19.80;99.90;;;;;;5047610;28;20441;-68
2021/09/19 10:17:50;;;;;;;4.57;4.17;;;19.90;99.90;;;;;;5045824;28;20473;-68
2021/09/19 10:20:23;;;;;;;4.77;4.27;;;20.00;99.90;;;;;;5045781;28;20485;-68
2021/09/19 10:22:56;;;;;;;6.17;5.60;;;20.00;99.90;;;;;;5029894;28;20800;-68
2021/09/19 10:25:25;;;;;;;4.53;4.20;;;20.20;99.90;;;;;;5048495;28;20429;-68
2021/09/19 10:27:55;;;;;;;4.97;4.47;;;20.30;99.90;;;;;;5046236;28;20493;-68
2021/09/19 10:30:21;;;;;;;6.57;5.63;;;20.30;99.90;;;;;;5047700;28;20497;-67
2021/09/19 10:32:48;;;;;;;5.70;5.07;;;20.30;99.90;;;;;;5030017;28;20896;-68
2021/09/19 10:35:17;;;;;;;4.63;4.23;;;20.50;99.90;;;;;;5047836;28;20426;-68
2021/09/19 10:37:52;;;;;;;4.23;3.83;;;20.60;99.90;;;;;;5027648;28;20450;-68
2021/09/19 10:40:38;;;;;;;6.27;5.40;;;20.30;99.90;;;;;;5045379;28;20937;-67
2021/09/19 10:43:09;;;;;;;4.53;4.13;;;20.40;99.90;;;;;;5046348;28;20469;-68
2021/09/19 10:45:49;;;;;;;4.87;4.20;;;20.50;99.90;;;;;;5023134;28;20803;-68
2021/09/19 10:48:18;;;;;;;4.63;4.23;;;20.60;99.90;;;;;;5027659;28;20840;-68
2021/09/19 10:50:46;;;;;;;4.33;3.93;;;20.70;99.90;;;;;;5026001;28;20467;-68
2021/09/19 10:53:12;;;;;;;5.03;4.50;;;20.80;99.90;;;;;;5028194;28;20942;-68
2021/09/19 10:56:00;;;;;;;5.10;4.60;;;20.90;99.90;;;;;;5028070;28;20469;-69
2021/09/19 10:58:46;;;;;;;4.80;4.40;;;21.10;99.90;;;;;;5025561;28;20307;-68
2021/09/19 11:01:16;;;;;;;9.30;5.10;;;21.20;99.90;;;;;;5011093;28;20977;-69
2021/09/19 11:03:44;;;;;;;10.47;4.90;;;21.50;99.90;;;;;;5005370;28;20533;-69
2021/09/19 11:06:30;;;;;;;6.77;5.37;;;21.40;99.90;;;;;;5027607;28;20432;-69
2021/09/19 11:09:23;;;;;;;6.07;4.97;;;21.40;99.90;;;;;;5025251;28;20423;-69
2021/09/19 11:12:08;;;;;;;4.73;4.23;;;21.50;99.90;;;;;;5024738;28;20448;-68
2021/09/19 11:14:55;;;;;;;5.00;4.50;;;21.70;99.90;;;;;;5027716;28;20423;-68
2021/09/19 11:17:22;;;;;;;5.03;4.53;;;21.80;99.90;;;;;;5025040;28;20454;-67
2021/09/19 11:20:10;;;;;;;6.10;5.50;;;21.70;99.90;;;;;;5025767;28;20459;-68
2021/09/19 11:22:36;;;;;;;5.90;4.57;;;21.80;99.90;;;;;;5026036;28;20442;-68
2021/09/19 11:25:05;;;;;;;5.50;4.93;;;21.80;99.90;;;;;;5028415;28;20956;-67
2021/09/19 11:27:31;;;;;;;5.87;5.13;;;21.80;99.90;;;;;;5008813;28;20534;-69
2021/09/19 11:29:57;;;;;;;5.73;4.87;;;21.70;99.90;;;;;;5025046;28;20483;-68
2021/09/19 11:32:24;;;;;;;7.03;6.40;;;21.80;99.90;;;;;;5026499;28;20447;-68
2021/09/19 11:34:54;;;;;;;7.87;7.17;;;22.00;99.90;;;;;;5024148;28;20440;-68
2021/09/19 11:37:20;;;;;;;5.73;5.23;;;22.30;99.90;;;;;;5025637;28;20876;-69
2021/09/19 11:39:45;;;;;;;5.57;5.07;;;22.50;99.90;;;;;;4993518;28;20442;-69
2021/09/19 11:42:13;;;;;;;5.80;5.30;;;22.80;99.90;;;;;;5027857;28;20197;-67
2021/09/19 11:44:47;;;;;;;5.53;5.03;;;23.10;99.90;;;;;;5025023;28;20200;-68
2021/09/19 11:47:15;;;;;;;5.27;4.87;;;23.30;99.90;;;;;;5008655;28;20471;-68
2021/09/19 11:49:41;;;;;;;5.03;4.63;;;23.70;99.90;;;;;;5008051;28;20458;-68
2021/09/19 11:52:08;;;;;;;5.73;5.13;;;23.80;99.90;;;;;;5024025;28;20469;-69
2021/09/19 11:54:34;;;;;;;5.50;4.90;;;24.00;99.90;;;;;;5025722;28;20449;-69
2021/09/19 11:57:02;;;;;;;5.20;4.70;;;24.10;99.90;;;;;;5007445;28;20449;-68
2021/09/19 11:59:28;;;;;;;5.20;4.73;;;24.00;99.90;;;;;;5024577;28;20518;-70
2021/09/19 12:01:58;;;;;;;5.33;4.80;;;24.00;99.90;;;;;;5029708;28;20519;-68
2021/09/19 12:04:25;;;;;;;5.73;5.23;;;23.90;99.90;;;;;;5024842;28;20331;-68
2021/09/19 12:06:51;;;;;;;5.27;4.80;;;23.70;99.90;;;;;;5024342;28;20453;-69
2021/09/19 12:09:21;;;;;;;5.83;5.23;;;23.60;99.90;;;;;;5025984;28;20459;-68
2021/09/19 12:11:52;;;;;;;6.00;5.07;;;23.50;99.90;;;;;;5024078;28;20473;-68
2021/09/19 12:14:26;;;;;;;5.50;5.00;;;23.40;99.90;;;;;;5025560;28;20421;-68
2021/09/19 12:17:09;;;;;;;4.90;4.50;;;23.30;99.90;;;;;;5026878;28;20443;-69
2021/09/19 12:19:36;;;;;;;5.43;5.00;;;23.20;99.90;;;;;;5023236;28;20419;-68
2021/09/19 12:22:14;;;;;;;5.90;5.07;;;23.00;99.90;;;;;;5024509;28;20458;-69
2021/09/19 12:24:40;;;;;;;5.30;4.90;;;22.80;99.90;;;;;;5024895;28;20866;-68
2021/09/19 12:27:15;;;;;;;4.60;4.20;;;22.80;99.90;;;;;;5005777;28;20461;-70
2021/09/19 12:30:04;;;;;;;8.47;4.57;;;22.80;99.90;;;;;;5024499;28;20891;-69
2021/09/19 12:32:38;;;;;;;5.77;5.10;;;22.60;99.90;;;;;;5024186;28;20463;-69
2021/09/19 12:35:07;;;;;;;5.33;4.83;;;22.40;99.90;;;;;;5026959;28;20427;-70
2021/09/19 12:37:35;;;;;;;5.60;5.10;;;22.30;99.90;;;;;;5026885;28;20431;-69
2021/09/19 12:40:14;;;;;;;13.33;12.00;;;22.30;99.90;;;;;;5025938;28;20443;-68
2021/09/19 12:42:40;;;;;;;6.13;5.63;;;22.10;99.90;;;;;;5025347;28;20790;-68
2021/09/19 12:45:11;;;;;;;5.70;5.20;;;22.10;99.90;;;;;;5007940;28;20428;-68
2021/09/19 12:47:38;;;;;;;5.50;5.00;;;22.10;99.90;;;;;;5023096;28;20822;-67
2021/09/19 12:50:23;;;;;;;7.57;4.50;;;22.10;99.90;;;;;;5023493;28;20471;-68